KHDN/HDN METAR and TAF weather

Enter ICAO airport designator
Station Type Date Time Source
KHDN METAR 2020/03/28 14:42 UTC NOAA

KHDN 281442Z AUTO 00000KT 1 1/2SM -SN BR FEW010 BKN018 OVC024 M06/M07 A3004 RMK AO2 P0000 FZRANO


Station Type Date Time Source
KHDN Decoded METAR 2020/03/28 14:42 UTC NOAA

Hayden, Yampa Valley Airport, CO, United States (KHDN) 40-29N 107-13W
Mar 28, 2020 - 10:42 AM EDT / 2020.03.28 1442 UTC
Wind: Calm:0
Visibility: 1 1/2 mile(s):0
Sky conditions: overcast
Weather: light snow; mist
Precipitation last hour: A trace
Temperature: 21 F (-6 C)
Dew Point: 19 F (-7 C)
Relative Humidity: 92%
Pressure (altimeter): 30.04 in. Hg (1017 hPa)
ob: KHDN 281442Z AUTO 00000KT 1 1/2SM -SN BR FEW010 BKN018 OVC024 M06/M07 A3004 RMK AO2 P0000 FZRANO
cycle: 14

Station Type Date Time Source
KHDN TAF 2020/03/28 13:30 UTC NOAA

TAF
AMD KHDN 281327Z 2813/2912 27006KT P6SM -SN SCT025 BKN035
TEMPO 2813/2815 VRB03KT 1SM -SHSN SCT010 OVC020
FM281500 27007KT P6SM SCT030 BKN050
FM282000 28008G18KT P6SM SCT030 BKN050
FM290000 28010G20KT P6SM VCSH SCT040 BKN050
FM290300 18008KT P6SM FEW045 SCT060

Example: see airport list